createdAt,value
2019-03-08T00:01:38.906Z,2.93
2019-03-08T00:04:07.440Z,2.00
2019-03-08T00:06:56.980Z,2.37
2019-03-08T00:09:25.377Z,2.30
2019-03-08T00:11:53.856Z,2.47
2019-03-08T00:14:22.428Z,2.20
2019-03-08T00:16:50.876Z,2.03
2019-03-08T00:19:19.339Z,2.33
2019-03-08T00:21:47.922Z,2.50
2019-03-08T00:24:16.284Z,2.53
2019-03-08T00:26:44.662Z,2.83
2019-03-08T00:29:13.145Z,3.03
2019-03-08T00:31:41.689Z,2.20
2019-03-08T00:34:10.386Z,2.73
2019-03-08T00:36:38.957Z,2.33
2019-03-08T00:39:07.411Z,2.40
2019-03-08T00:41:35.875Z,2.97
2019-03-08T00:44:04.362Z,2.97
2019-03-08T00:46:32.852Z,2.40
2019-03-08T00:49:01.212Z,3.23
2019-03-08T00:51:29.732Z,3.20
2019-03-08T00:53:58.177Z,2.40
2019-03-08T00:56:26.645Z,2.30
2019-03-08T00:58:55.056Z,4.50
2019-03-08T01:01:23.564Z,2.83
2019-03-08T01:03:52.096Z,2.57
2019-03-08T01:06:20.649Z,2.60
2019-03-08T01:08:49.049Z,2.50
2019-03-08T01:11:17.493Z,3.10
2019-03-08T01:13:45.989Z,2.63
2019-03-08T01:16:14.447Z,3.17
2019-03-08T01:18:42.920Z,2.43
2019-03-08T01:21:11.410Z,2.97
2019-03-08T01:23:39.793Z,3.63
2019-03-08T01:26:08.246Z,3.67
2019-03-08T01:28:37.345Z,3.17
2019-03-08T01:31:05.896Z,3.37
2019-03-08T01:33:34.352Z,4.23
2019-03-08T01:36:03.050Z,3.70
2019-03-08T01:38:31.564Z,3.70
2019-03-08T01:40:59.960Z,4.40
2019-03-08T01:43:28.585Z,4.40
2019-03-08T01:45:57.024Z,3.63
2019-03-08T01:48:25.467Z,4.87
2019-03-08T01:50:53.952Z,4.57
2019-03-08T01:53:22.324Z,4.57
2019-03-08T01:55:50.788Z,4.23
2019-03-08T01:58:19.238Z,4.87
2019-03-08T02:00:47.644Z,4.70
2019-03-08T02:03:17.259Z,5.23
2019-03-08T02:05:45.800Z,5.40
2019-03-08T02:08:14.252Z,5.90
2019-03-08T02:10:42.720Z,5.63
2019-03-08T02:13:11.235Z,5.47
2019-03-08T02:15:39.845Z,5.63
2019-03-08T02:18:08.300Z,6.00
2019-03-08T02:20:36.868Z,6.73
2019-03-08T02:23:05.360Z,6.07
2019-03-08T02:25:33.813Z,6.63
2019-03-08T02:28:02.285Z,3.80
2019-03-08T02:30:30.747Z,3.73
2019-03-08T02:32:59.279Z,3.67
2019-03-08T02:35:27.776Z,3.30
2019-03-08T02:38:21.540Z,3.67
2019-03-08T02:40:50.136Z,3.40
2019-03-08T02:43:18.592Z,3.37
2019-03-08T02:45:47.061Z,3.47
2019-03-08T02:48:15.556Z,3.67
2019-03-08T02:50:44.008Z,4.30
2019-03-08T02:53:12.456Z,5.00
2019-03-08T02:55:40.932Z,3.73
2019-03-08T02:58:09.389Z,3.83
2019-03-08T03:00:44.816Z,4.87
2019-03-08T03:03:13.509Z,3.90
2019-03-08T03:05:41.960Z,5.00
2019-03-08T03:08:10.424Z,5.10
2019-03-08T03:10:38.826Z,6.13
2019-03-08T03:13:07.267Z,5.70
2019-03-08T03:15:35.750Z,6.37
2019-03-08T03:18:04.298Z,7.83
2019-03-08T03:20:32.738Z,7.33
2019-03-08T03:23:01.233Z,7.47
2019-03-08T03:25:29.722Z,7.03
2019-03-08T03:27:58.180Z,6.03
2019-03-08T03:30:26.682Z,6.10
2019-03-08T03:32:55.156Z,6.80
2019-03-08T03:35:23.612Z,6.00
2019-03-08T03:37:52.037Z,6.23
2019-03-08T03:40:20.521Z,6.37
2019-03-08T03:42:48.976Z,6.20
2019-03-08T03:45:17.509Z,6.07
2019-03-08T03:47:45.992Z,6.47
2019-03-08T03:50:14.556Z,7.47
2019-03-08T03:52:43.037Z,6.60
2019-03-08T03:55:11.601Z,6.30
2019-03-08T03:57:40.011Z,6.67
2019-03-08T04:00:09.079Z,6.37
2019-03-08T04:02:37.520Z,6.57
2019-03-08T04:05:06.067Z,7.50
2019-03-08T04:07:34.545Z,7.67
2019-03-08T04:10:03.001Z,7.90
2019-03-08T04:12:31.466Z,7.30
2019-03-08T04:14:59.978Z,6.70
2019-03-08T04:17:28.351Z,7.00
2019-03-08T04:19:56.860Z,7.73
2019-03-08T04:22:25.347Z,7.60
2019-03-08T04:24:53.810Z,7.63
2019-03-08T04:27:22.256Z,7.73
2019-03-08T04:29:50.749Z,7.27
2019-03-08T04:32:19.112Z,7.77
2019-03-08T04:34:47.492Z,7.07
2019-03-08T04:37:16.069Z,7.83
2019-03-08T04:39:44.441Z,8.03
2019-03-08T04:42:12.928Z,7.50
2019-03-08T04:44:41.457Z,8.27
2019-03-08T04:47:09.929Z,8.40
2019-03-08T04:49:38.379Z,9.23
2019-03-08T04:52:06.956Z,7.97
2019-03-08T04:54:35.420Z,8.50
2019-03-08T04:57:03.951Z,8.27
2019-03-08T04:59:32.426Z,7.37
2019-03-08T05:02:00.884Z,8.23
2019-03-08T05:04:29.340Z,8.87
2019-03-08T05:06:58.093Z,8.83
2019-03-08T05:09:26.665Z,8.53
2019-03-08T05:11:55.148Z,9.77
2019-03-08T05:14:23.624Z,8.93
2019-03-08T05:16:52.099Z,9.63
2019-03-08T05:19:20.589Z,9.10
2019-03-08T05:21:49.264Z,9.17
2019-03-08T05:24:17.734Z,8.63
2019-03-08T05:26:46.178Z,9.50
2019-03-08T05:29:14.660Z,9.93
2019-03-08T05:31:43.180Z,9.53
2019-03-08T05:34:11.614Z,9.80
2019-03-08T05:36:40.208Z,9.97
2019-03-08T05:39:10.702Z,9.47
2019-03-08T05:41:39.188Z,10.37
2019-03-08T05:44:07.680Z,9.17
2019-03-08T05:46:36.185Z,9.57
2019-03-08T05:49:04.657Z,10.23
2019-03-08T05:51:33.440Z,11.43
2019-03-08T05:54:01.902Z,12.27
2019-03-08T05:56:30.437Z,10.50
2019-03-08T05:58:58.929Z,12.13
2019-03-08T06:01:27.499Z,10.70
2019-03-08T06:03:55.970Z,11.07
2019-03-08T06:06:26.087Z,11.57
2019-03-08T06:08:54.592Z,12.07
2019-03-08T06:11:23.147Z,11.73
2019-03-08T06:13:51.716Z,9.60
2019-03-08T06:16:20.278Z,9.20
2019-03-08T06:18:48.877Z,9.33
2019-03-08T06:21:17.788Z,9.00
2019-03-08T06:23:46.253Z,8.87
2019-03-08T06:26:14.854Z,9.00
2019-03-08T06:28:43.490Z,8.67
2019-03-08T06:31:12.205Z,9.90
2019-03-08T06:33:40.652Z,10.63
2019-03-08T06:36:09.169Z,9.33
2019-03-08T06:38:37.720Z,10.47
2019-03-08T06:41:06.175Z,10.90
2019-03-08T06:43:34.768Z,12.33
2019-03-08T06:46:03.236Z,11.83
2019-03-08T06:48:31.635Z,11.27
2019-03-08T06:51:00.117Z,11.30
2019-03-08T06:53:28.704Z,10.93
2019-03-08T06:55:57.113Z,10.27
2019-03-08T06:58:47.813Z,8.53
2019-03-08T07:01:21.069Z,8.20
2019-03-08T07:03:49.587Z,7.00
2019-03-08T07:06:18.069Z,7.93
2019-03-08T07:08:46.540Z,8.10
2019-03-08T07:11:14.915Z,6.90
2019-03-08T07:13:43.408Z,7.47
2019-03-08T07:16:13.362Z,7.37
2019-03-08T07:18:42.203Z,7.07
2019-03-08T07:21:18.522Z,7.07
2019-03-08T07:24:01.763Z,7.17
2019-03-08T07:27:01.673Z,8.30
2019-03-08T07:29:47.944Z,7.33
2019-03-08T07:32:28.489Z,8.97
2019-03-08T07:35:19.046Z,6.97
2019-03-08T07:38:19.116Z,7.70
2019-03-08T07:41:10.077Z,6.63
2019-03-08T07:44:12.849Z,7.17
2019-03-08T07:46:52.761Z,7.13
2019-03-08T07:49:29.799Z,7.90
2019-03-08T07:52:14.340Z,7.30
2019-03-08T07:55:01.935Z,7.60
2019-03-08T07:57:49.681Z,8.33
2019-03-08T08:00:35.416Z,7.77
2019-03-08T08:03:12.918Z,7.37
2019-03-08T08:06:00.823Z,7.37
2019-03-08T08:08:38.112Z,7.53
2019-03-08T08:14:18.794Z,7.07
2019-03-08T08:17:24.836Z,7.33
2019-03-08T08:20:18.161Z,7.10
2019-03-08T08:23:00.631Z,5.97
2019-03-08T08:25:48.215Z,6.87
2019-03-08T08:28:22.145Z,6.63
2019-03-08T08:31:09.755Z,6.30
2019-03-08T08:33:56.544Z,5.97
2019-03-08T08:36:43.320Z,6.30
2019-03-08T08:39:29.519Z,6.63
2019-03-08T08:42:35.451Z,6.23
2019-03-08T08:45:30.066Z,7.97
2019-03-08T08:48:20.908Z,6.10
2019-03-08T08:51:11.595Z,5.67
2019-03-08T08:54:10.368Z,4.90
2019-03-08T08:57:01.096Z,6.57
2019-03-08T08:59:39.949Z,6.33
2019-03-08T09:02:30.337Z,6.70
2019-03-08T09:05:18.146Z,5.30
2019-03-08T09:07:51.312Z,6.53
2019-03-08T09:10:37.588Z,5.43
2019-03-08T09:13:25.213Z,4.97
2019-03-08T09:16:02.513Z,5.43
2019-03-08T09:18:50.169Z,5.47
2019-03-08T09:21:28.351Z,6.73
2019-03-08T09:24:08.342Z,5.50
2019-03-08T09:27:01.743Z,5.33
2019-03-08T09:29:47.955Z,4.33
2019-03-08T09:32:34.526Z,5.13
2019-03-08T09:35:12.529Z,6.57
2019-03-08T09:38:03.144Z,5.80
2019-03-08T09:40:39.976Z,5.03
2019-03-08T09:43:42.851Z,5.13
2019-03-08T09:46:23.285Z,5.13
2019-03-08T09:49:05.307Z,5.57
2019-03-08T09:51:52.964Z,5.00
2019-03-08T09:54:33.879Z,5.83
2019-03-08T09:57:39.616Z,5.80
2019-03-08T10:00:38.708Z,4.83
2019-03-08T10:03:15.821Z,3.80
2019-03-08T10:05:52.847Z,3.53
2019-03-08T10:08:35.078Z,5.23
2019-03-08T10:11:15.053Z,4.47
2019-03-08T10:14:01.681Z,4.40
2019-03-08T10:16:38.006Z,4.00
2019-03-08T10:19:16.577Z,4.00
2019-03-08T10:21:54.653Z,4.60
2019-03-08T10:25:00.938Z,4.87
2019-03-08T10:27:39.810Z,4.37
2019-03-08T10:30:33.077Z,5.23
2019-03-08T10:33:24.781Z,4.10
2019-03-08T10:36:20.655Z,3.87
2019-03-08T10:39:05.871Z,3.03
2019-03-08T10:41:52.197Z,2.33
2019-03-08T10:44:40.086Z,3.40
2019-03-08T10:47:56.219Z,2.30
2019-03-08T10:50:33.432Z,1.63
2019-03-08T10:53:19.871Z,2.10
2019-03-08T10:56:07.911Z,2.57
2019-03-08T10:59:13.812Z,3.43
2019-03-08T11:02:01.423Z,2.07
2019-03-08T11:04:35.135Z,2.73
2019-03-08T11:07:22.737Z,2.70
2019-03-08T11:10:09.347Z,2.63
2019-03-08T11:12:57.101Z,2.47
2019-03-08T11:15:50.584Z,3.00
2019-03-08T11:18:53.475Z,2.80
2019-03-08T11:22:00.590Z,3.30
2019-03-08T11:24:50.928Z,3.60
2019-03-08T11:27:37.095Z,4.63
2019-03-08T11:30:21.883Z,5.03
2019-03-08T11:33:02.637Z,5.00
2019-03-08T11:35:50.271Z,5.17
2019-03-08T11:38:28.052Z,4.43
2019-03-08T11:41:06.972Z,5.27
2019-03-08T11:43:57.625Z,4.07
2019-03-08T11:46:48.406Z,5.13
2019-03-08T11:49:36.148Z,4.53
2019-03-08T11:52:42.151Z,5.23
2019-03-08T11:55:45.182Z,4.60
2019-03-08T11:58:35.496Z,4.73
2019-03-08T12:01:23.231Z,4.13
2019-03-08T12:04:02.030Z,4.47
2019-03-08T12:06:58.682Z,3.77
2019-03-08T12:09:35.557Z,4.87
2019-03-08T12:12:15.463Z,4.00
2019-03-08T12:15:06.173Z,2.93
2019-03-08T12:17:51.329Z,2.30
2019-03-08T12:20:41.876Z,2.47
2019-03-08T12:23:32.259Z,2.23
2019-03-08T12:26:11.880Z,2.43
2019-03-08T12:28:49.440Z,2.50
2019-03-08T12:31:38.596Z,2.10
2019-03-08T12:34:26.141Z,2.80
2019-03-08T12:37:15.450Z,2.30
2019-03-08T12:40:03.470Z,2.93
2019-03-08T12:42:50.063Z,2.73
2019-03-08T12:45:36.784Z,3.00
2019-03-08T12:48:12.616Z,2.80
2019-03-08T12:50:47.425Z,2.80
2019-03-08T12:53:30.886Z,3.80
2019-03-08T12:56:33.643Z,3.97
2019-03-08T12:59:08.731Z,3.60
2019-03-08T13:02:02.322Z,3.77
2019-03-08T13:04:38.501Z,3.73
2019-03-08T13:07:13.811Z,3.60
2019-03-08T13:09:48.540Z,5.00
2019-03-08T13:12:17.147Z,3.77
2019-03-08T13:14:45.648Z,3.77
2019-03-08T13:17:14.108Z,3.20
2019-03-08T13:19:42.581Z,3.03
2019-03-08T13:22:11.164Z,3.03
2019-03-08T13:24:40.677Z,3.87
2019-03-08T13:27:09.250Z,4.13
2019-03-08T13:29:37.729Z,3.77
2019-03-08T13:32:08.289Z,4.17
2019-03-08T13:34:36.774Z,4.40
2019-03-08T13:37:05.351Z,4.50
2019-03-08T13:39:33.754Z,3.93
2019-03-08T13:42:02.261Z,4.53
2019-03-08T13:44:30.819Z,4.13
2019-03-08T13:46:59.283Z,5.03
2019-03-08T13:49:27.757Z,4.50
2019-03-08T13:51:56.272Z,5.20
2019-03-08T13:54:24.788Z,5.17
2019-03-08T13:56:53.301Z,5.70
2019-03-08T13:59:21.822Z,6.43
2019-03-08T14:01:51.431Z,6.60
2019-03-08T14:04:19.973Z,5.63
2019-03-08T14:06:48.422Z,6.17
2019-03-08T14:09:16.830Z,5.80
2019-03-08T14:11:48.428Z,6.30
2019-03-08T14:14:16.877Z,5.97
2019-03-08T14:16:45.431Z,5.77
2019-03-08T14:19:13.912Z,6.07
2019-03-08T14:21:42.475Z,5.40
2019-03-08T14:24:10.843Z,5.07
2019-03-08T14:26:39.337Z,5.23
2019-03-08T14:29:07.849Z,5.57
2019-03-08T14:31:49.215Z,4.67
2019-03-08T14:34:17.897Z,5.50
2019-03-08T14:36:46.376Z,6.13
2019-03-08T14:39:15.146Z,5.43
2019-03-08T14:41:48.479Z,5.50
2019-03-08T14:44:34.837Z,4.47
2019-03-08T14:47:11.580Z,3.57
2019-03-08T14:49:45.783Z,4.27
2019-03-08T14:52:15.799Z,3.80
2019-03-08T14:54:46.419Z,2.87
2019-03-08T14:57:26.382Z,3.60
2019-03-08T14:59:44.684Z,3.83
2019-03-08T15:02:14.611Z,3.97
2019-03-08T15:04:43.171Z,3.93
2019-03-08T15:07:11.636Z,4.00
2019-03-08T15:09:40.137Z,3.93
2019-03-08T15:12:16.359Z,3.40
2019-03-08T15:14:38.752Z,3.90
2019-03-08T15:17:09.334Z,3.83
2019-03-08T15:19:40.325Z,3.43
2019-03-08T15:22:07.907Z,3.70
2019-03-08T15:24:38.602Z,3.67
2019-03-08T15:27:06.698Z,4.67
2019-03-08T15:29:35.791Z,3.70
2019-03-08T15:32:04.276Z,4.20
2019-03-08T15:34:32.676Z,4.20
2019-03-08T15:37:01.162Z,4.47
2019-03-08T15:39:29.559Z,5.30
2019-03-08T15:41:58.572Z,4.37
2019-03-08T15:44:29.207Z,4.00
2019-03-08T15:46:59.294Z,4.20
2019-03-08T15:49:30.519Z,3.60
2019-03-08T15:51:59.858Z,3.77
2019-03-08T15:54:28.404Z,3.70
2019-03-08T15:56:56.897Z,3.83
2019-03-08T15:59:25.376Z,3.97
2019-03-08T16:01:53.985Z,3.70
2019-03-08T16:04:22.448Z,4.17
2019-03-08T16:07:18.973Z,4.80
2019-03-08T16:09:48.553Z,4.63
2019-03-08T16:12:17.111Z,5.60
2019-03-08T16:14:45.643Z,4.43
2019-03-08T16:17:14.676Z,6.23
2019-03-08T16:19:43.208Z,5.90
2019-03-08T16:22:11.745Z,5.37
2019-03-08T16:24:40.356Z,6.27
2019-03-08T16:27:08.852Z,6.50
2019-03-08T16:29:37.331Z,5.73
2019-03-08T16:32:10.893Z,6.47
2019-03-08T16:34:39.181Z,6.30
2019-03-08T16:37:15.432Z,6.53
2019-03-08T16:40:02.505Z,6.93
2019-03-08T16:42:39.228Z,5.93
2019-03-08T16:45:26.648Z,5.50
2019-03-08T16:48:11.835Z,5.53
2019-03-08T16:50:56.083Z,5.13
2019-03-08T16:53:30.786Z,5.57
2019-03-08T16:56:17.620Z,6.20
2019-03-08T16:59:29.654Z,5.03
2019-03-08T17:02:16.524Z,5.80
2019-03-08T17:05:04.257Z,4.47
2019-03-08T17:07:41.339Z,4.53
2019-03-08T17:10:19.856Z,5.00
2019-03-08T17:13:10.494Z,4.77
2019-03-08T17:15:58.240Z,4.30
2019-03-08T17:18:48.872Z,4.70
2019-03-08T17:21:35.099Z,4.27
2019-03-08T17:24:16.997Z,4.10
2019-03-08T17:26:53.532Z,4.50
2019-03-08T17:29:31.188Z,4.23
2019-03-08T17:32:14.271Z,4.30
2019-03-08T17:35:02.134Z,4.90
2019-03-08T17:37:52.535Z,4.30
2019-03-08T17:40:43.165Z,4.85
2019-03-08T17:43:27.301Z,4.80
2019-03-08T17:46:10.408Z,5.40
2019-03-08T17:49:13.293Z,3.77
2019-03-08T17:51:59.507Z,5.53
2019-03-08T17:54:38.090Z,7.30
2019-03-08T17:57:17.964Z,6.62
2019-03-08T18:00:10.172Z,11.77
2019-03-08T18:02:56.823Z,39.93
2019-03-08T18:05:43.470Z,18.47
2019-03-08T18:08:30.173Z,16.30
2019-03-08T18:11:16.746Z,33.67
2019-03-08T18:13:57.820Z,16.47
2019-03-08T18:16:34.201Z,9.43
2019-03-08T18:19:20.756Z,9.80
2019-03-08T18:21:54.906Z,8.83
2019-03-08T18:24:35.888Z,14.17
2019-03-08T18:27:12.936Z,14.97
2019-03-08T18:30:03.790Z,7.73
2019-03-08T18:32:48.108Z,8.60
2019-03-08T18:35:24.091Z,7.40
2019-03-08T18:37:59.076Z,10.97
2019-03-08T18:40:41.297Z,8.20
2019-03-08T18:43:31.998Z,6.13
2019-03-08T18:46:13.344Z,4.90
2019-03-08T18:48:55.259Z,4.73
2019-03-08T18:51:42.994Z,4.93
2019-03-08T18:54:28.333Z,4.60
2019-03-08T18:57:18.661Z,4.40
2019-03-08T19:00:07.308Z,6.20
2019-03-08T19:02:53.690Z,4.85
2019-03-08T19:05:48.313Z,6.30
2019-03-08T19:08:41.883Z,4.60
2019-03-08T19:11:21.857Z,3.83
2019-03-08T19:14:12.809Z,4.23
2019-03-08T19:17:02.939Z,3.70
2019-03-08T19:19:51.532Z,3.47
2019-03-08T19:22:40.154Z,3.80
2019-03-08T19:25:46.047Z,3.70
2019-03-08T19:28:33.631Z,4.33
2019-03-08T19:31:26.904Z,4.23
2019-03-08T19:34:26.591Z,3.77
2019-03-08T19:37:17.060Z,3.30
2019-03-08T19:40:14.093Z,3.47
2019-03-08T19:43:09.145Z,2.90
2019-03-08T19:45:55.156Z,5.03
2019-03-08T19:48:48.536Z,4.07
2019-03-08T19:51:36.101Z,5.80
2019-03-08T19:54:26.611Z,3.73
2019-03-08T19:57:13.243Z,5.67
2019-03-08T19:59:59.780Z,4.57
2019-03-08T20:02:53.483Z,3.43
2019-03-08T20:05:39.675Z,3.73
2019-03-08T20:08:26.359Z,3.47
2019-03-08T20:11:12.900Z,3.30
2019-03-08T20:14:10.352Z,3.60
2019-03-08T20:17:06.989Z,4.40
2019-03-08T20:19:45.313Z,4.93
2019-03-08T20:22:35.866Z,4.17
2019-03-08T20:25:15.863Z,3.80
2019-03-08T20:27:53.028Z,4.37
2019-03-08T20:30:39.345Z,7.08
2019-03-08T20:33:19.251Z,4.60
2019-03-08T20:36:03.695Z,4.40
2019-03-08T20:39:06.881Z,5.50
2019-03-08T20:41:44.667Z,5.90
2019-03-08T20:44:20.550Z,5.10
2019-03-08T20:46:52.452Z,4.57
2019-03-08T20:49:20.857Z,4.33
2019-03-08T20:51:51.587Z,5.30
2019-03-08T20:54:22.206Z,4.60
2019-03-08T20:56:50.399Z,7.00
2019-03-08T20:59:26.455Z,4.60
2019-03-08T21:01:55.331Z,6.60
2019-03-08T21:04:24.250Z,7.37
2019-03-08T21:06:58.503Z,5.23
2019-03-08T21:09:26.873Z,6.70
2019-03-08T21:11:55.231Z,6.53
2019-03-08T21:14:24.691Z,4.97
2019-03-08T21:16:53.278Z,4.97
2019-03-08T21:19:21.706Z,4.40
2019-03-08T21:21:50.433Z,5.50
2019-03-08T21:24:18.921Z,5.97
2019-03-08T21:26:47.307Z,7.40
2019-03-08T21:29:16.002Z,5.60
2019-03-08T21:31:44.487Z,10.43
2019-03-08T21:34:13.036Z,7.47
2019-03-08T21:36:41.723Z,6.47
2019-03-08T21:39:14.670Z,6.27
2019-03-08T21:41:43.176Z,10.20
2019-03-08T21:44:11.723Z,33.50
2019-03-08T21:46:40.173Z,7.07
2019-03-08T21:49:08.597Z,9.13
2019-03-08T21:51:37.049Z,7.10
2019-03-08T21:54:05.496Z,10.13
2019-03-08T21:56:33.824Z,6.60
2019-03-08T21:59:02.260Z,6.20
2019-03-08T22:01:31.073Z,5.07
2019-03-08T22:04:11.279Z,5.20
2019-03-08T22:06:39.772Z,5.47
2019-03-08T22:09:22.341Z,5.57
2019-03-08T22:11:50.669Z,6.45
2019-03-08T22:14:19.118Z,5.57
2019-03-08T22:16:47.519Z,5.27
2019-03-08T22:19:16.021Z,5.23
2019-03-08T22:21:44.495Z,4.77
2019-03-08T22:24:13.854Z,5.50
2019-03-08T22:26:42.308Z,4.63
2019-03-08T22:29:10.787Z,4.53
2019-03-08T22:31:39.264Z,6.17
2019-03-08T22:34:07.615Z,5.30
2019-03-08T22:36:36.071Z,4.43
2019-03-08T22:39:05.703Z,4.97
2019-03-08T22:41:34.128Z,4.90
2019-03-08T22:44:02.472Z,4.77
2019-03-08T22:46:31.067Z,4.67
2019-03-08T22:48:59.403Z,5.43
2019-03-08T22:51:28.295Z,4.47
2019-03-08T22:53:56.674Z,5.03
2019-03-08T22:56:25.147Z,5.80
2019-03-08T22:58:53.571Z,5.40
2019-03-08T23:01:22.208Z,4.00
2019-03-08T23:03:50.631Z,4.53
2019-03-08T23:06:19.095Z,5.73
2019-03-08T23:08:47.488Z,5.10
2019-03-08T23:11:16.010Z,5.53
2019-03-08T23:13:44.439Z,5.07
2019-03-08T23:16:13.006Z,4.67
2019-03-08T23:18:41.662Z,5.40
2019-03-08T23:21:10.083Z,5.07
2019-03-08T23:23:38.455Z,4.93
2019-03-08T23:26:06.875Z,4.40
2019-03-08T23:28:40.106Z,4.03
2019-03-08T23:31:15.341Z,4.70
2019-03-08T23:33:43.688Z,4.63
2019-03-08T23:36:12.071Z,4.80
2019-03-08T23:38:40.526Z,4.83
2019-03-08T23:41:08.880Z,5.17
2019-03-08T23:43:37.563Z,3.87
2019-03-08T23:46:05.922Z,4.23
2019-03-08T23:48:34.259Z,3.70
2019-03-08T23:51:03.149Z,3.87
2019-03-08T23:53:31.573Z,4.33
2019-03-08T23:55:59.911Z,4.60
2019-03-08T23:58:28.331Z,4.60
